Time;durP1;ratioP1;P1;durP2;ratioP2;P2;SDS_P1;SDS_P2;PMS_P1;PMS_P2;Temp;Humidity;BMP_temperature;BMP_pressure;BME280_temperature;BME280_humidity;BME280_pressure;Samples;Min_cycle;Max_cycle;Signal;HPM_P1;HPM_P2
2023/06/23 00:00:09;;;;;;;12.15;10.85;;;18.50;99.90;;;;;;5073740;28;20047;-70
2023/06/23 00:02:35;;;;;;;14.85;11.20;;;18.60;99.90;;;;;;5073560;28;20032;-71
2023/06/23 00:05:03;;;;;;;14.65;12.20;;;18.60;99.90;;;;;;5073805;28;20051;-71
2023/06/23 00:07:28;;;;;;;16.50;11.93;;;18.90;99.90;;;;;;5073255;28;20126;-71
2023/06/23 00:09:54;;;;;;;16.30;11.63;;;18.60;99.90;;;;;;5091524;28;20067;-71
2023/06/23 00:12:19;;;;;;;15.57;12.38;;;18.60;99.90;;;;;;5074109;28;20043;-71
2023/06/23 00:14:45;;;;;;;15.73;12.48;;;18.60;99.90;;;;;;5091862;28;20032;-71
2023/06/23 00:17:11;;;;;;;23.33;13.70;;;18.30;99.90;;;;;;5056188;28;20514;-70
2023/06/23 00:19:36;;;;;;;16.30;13.40;;;18.80;99.90;;;;;;5091674;28;20047;-71
2023/06/23 00:22:02;;;;;;;15.27;12.15;;;18.60;99.90;;;;;;5091820;28;20506;-71
2023/06/23 00:24:30;;;;;;;17.35;12.35;;;18.30;99.90;;;;;;5073409;28;20047;-71
2023/06/23 00:26:56;;;;;;;16.55;13.57;;;18.30;99.90;;;;;;5073093;28;20076;-71
2023/06/23 00:29:22;;;;;;;20.70;13.73;;;18.40;99.90;;;;;;5073606;28;20120;-70
2023/06/23 00:31:49;;;;;;;21.95;13.82;;;18.30;99.90;;;;;;5073917;28;20043;-70
2023/06/23 00:34:15;;;;;;;23.55;13.48;;;18.40;99.90;;;;;;5073386;28;20059;-70
2023/06/23 00:36:41;;;;;;;16.95;13.80;;;18.40;99.90;;;;;;5073388;28;20036;-71
2023/06/23 00:39:08;;;;;;;18.55;13.90;;;18.40;99.90;;;;;;5073344;28;20046;-70
2023/06/23 00:41:34;;;;;;;16.35;12.60;;;19.10;99.90;;;;;;5073729;28;20035;-71
2023/06/23 00:44:00;;;;;;;19.40;12.63;;;18.40;99.90;;;;;;5091664;28;20090;-71
2023/06/23 00:46:27;;;;;;;19.20;13.10;;;18.90;99.90;;;;;;5073405;28;20508;-71
2023/06/23 00:48:53;;;;;;;17.25;13.90;;;19.10;99.90;;;;;;5073245;28;20105;-70
2023/06/23 00:51:22;;;;;;;21.45;14.38;;;18.60;99.90;;;;;;5073368;28;20043;-70
2023/06/23 00:53:47;;;;;;;17.45;14.88;;;18.60;99.90;;;;;;5073195;28;20553;-71
2023/06/23 00:56:21;;;;;;;19.85;15.68;;;19.00;99.90;;;;;;5073417;28;20032;-70
2023/06/23 00:58:47;;;;;;;19.05;15.50;;;18.40;99.90;;;;;;5072838;28;20039;-71
2023/06/23 01:01:13;;;;;;;20.88;15.07;;;18.30;99.90;;;;;;5073352;28;20496;-70
2023/06/23 01:03:40;;;;;;;23.13;15.50;;;18.70;99.90;;;;;;5073406;28;20039;-70
2023/06/23 01:06:25;;;;;;;18.23;14.48;;;18.30;99.90;;;;;;5073255;28;20093;-70
2023/06/23 01:09:09;;;;;;;19.85;15.10;;;18.60;99.90;;;;;;5056308;28;20122;-70
2023/06/23 01:11:43;;;;;;;19.35;13.88;;;18.30;99.90;;;;;;5073210;28;20455;-70
2023/06/23 01:14:12;;;;;;;;;;;18.40;99.90;;;;;;5073601;28;20106;-70
2023/06/23 01:16:47;;;;;;;18.63;13.50;;;18.30;99.90;;;;;;5090708;28;19949;-70
2023/06/23 01:19:21;;;;;;;17.65;12.88;;;18.00;99.90;;;;;;5072743;28;20492;-69
2023/06/23 01:22:08;;;;;;;16.52;11.85;;;18.10;99.90;;;;;;5073197;28;20028;-69
2023/06/23 01:24:55;;;;;;;13.32;11.30;;;18.30;99.90;;;;;;5073282;28;20101;-70
2023/06/23 01:27:28;;;;;;;17.05;11.63;;;18.10;99.90;;;;;;5072349;28;20688;-70
2023/06/23 01:29:55;;;;;;;15.10;11.85;;;17.90;99.90;;;;;;5075865;28;20040;-70
2023/06/23 01:32:27;;;;;;;14.52;11.05;;;18.30;99.90;;;;;;5094983;28;20101;-70
2023/06/23 01:34:58;;;;;;;14.63;11.57;;;18.00;99.90;;;;;;5094980;28;20040;-70
2023/06/23 01:37:28;;;;;;;18.08;11.23;;;18.10;99.90;;;;;;5076395;28;20044;-70
2023/06/23 01:39:57;;;;;;;15.23;11.23;;;18.20;99.90;;;;;;5076633;28;20418;-70
2023/06/23 01:42:29;;;;;;;18.23;13.40;;;17.90;99.90;;;;;;5077012;28;20045;-70
2023/06/23 01:44:58;;;;;;;17.25;13.18;;;18.00;99.90;;;;;;5059979;28;20089;-70
2023/06/23 01:47:30;;;;;;;15.88;14.07;;;17.90;99.90;;;;;;5059207;28;20101;-70
2023/06/23 01:50:00;;;;;;;17.40;13.53;;;17.90;99.90;;;;;;5059403;28;20050;-70
2023/06/23 01:52:29;;;;;;;20.05;14.23;;;17.70;99.90;;;;;;5076408;28;20040;-70
2023/06/23 01:54:56;;;;;;;16.40;13.68;;;17.90;99.90;;;;;;5076178;28;20068;-70
2023/06/23 01:57:24;;;;;;;16.25;13.52;;;18.70;99.90;;;;;;5075110;28;20032;-70
2023/06/23 01:59:51;;;;;;;18.15;13.63;;;17.70;99.90;;;;;;5058430;28;20173;-70
2023/06/23 02:02:18;;;;;;;17.75;14.10;;;17.70;99.90;;;;;;5075992;28;20036;-70
2023/06/23 02:04:46;;;;;;;19.83;13.50;;;18.20;99.90;;;;;;5076317;28;20040;-70
2023/06/23 02:07:14;;;;;;;17.83;13.50;;;17.60;99.90;;;;;;5058837;28;20109;-70
2023/06/23 02:09:42;;;;;;;16.95;13.48;;;17.90;99.90;;;;;;5059148;28;20044;-70
2023/06/23 02:12:09;;;;;;;23.55;15.05;;;17.70;99.90;;;;;;5076315;28;20474;-70
2023/06/23 02:14:37;;;;;;;18.63;13.05;;;17.50;99.90;;;;;;5075778;28;20050;-70
2023/06/23 02:17:09;;;;;;;19.70;14.88;;;17.40;99.90;;;;;;5074996;28;20036;-70
2023/06/23 02:19:46;;;;;;;16.63;12.02;;;17.60;99.90;;;;;;5075995;28;20079;-70
2023/06/23 02:22:14;;;;;;;18.02;12.75;;;17.40;99.90;;;;;;5075857;28;20036;-70
2023/06/23 02:24:41;;;;;;;15.30;12.07;;;17.70;99.90;;;;;;5075657;28;20122;-70
2023/06/23 02:27:08;;;;;;;18.48;13.77;;;17.50;99.90;;;;;;5075424;28;20127;-70
2023/06/23 02:29:39;;;;;;;19.60;13.80;;;17.50;99.90;;;;;;5075712;28;20418;-70
2023/06/23 02:32:05;;;;;;;18.30;14.13;;;17.70;99.90;;;;;;5075586;28;20082;-70
2023/06/23 02:34:31;;;;;;;20.85;14.70;;;17.80;99.90;;;;;;5075421;28;20051;-70
2023/06/23 02:37:03;;;;;;;20.55;15.10;;;17.30;99.90;;;;;;5075144;28;20040;-70
2023/06/23 02:39:33;;;;;;;18.67;14.55;;;17.50;99.90;;;;;;5074622;28;20040;-70
2023/06/23 02:42:00;;;;;;;18.00;14.15;;;17.40;99.90;;;;;;5075228;28;20164;-70
2023/06/23 02:44:34;;;;;;;22.17;15.88;;;18.00;99.90;;;;;;5058968;28;20044;-70
2023/06/23 02:47:03;;;;;;;21.45;15.10;;;18.90;99.90;;;;;;5093135;28;20048;-70
2023/06/23 02:49:30;;;;;;;18.40;16.25;;;17.40;99.90;;;;;;5075154;28;20071;-70
2023/06/23 02:51:59;;;;;;;21.65;16.67;;;17.30;99.90;;;;;;5074946;28;20043;-70
2023/06/23 02:54:31;;;;;;;28.80;20.05;;;17.60;99.90;;;;;;5075330;28;20054;-70
2023/06/23 02:56:58;;;;;;;26.40;19.75;;;17.40;99.90;;;;;;5075195;28;20395;-70
2023/06/23 02:59:26;;;;;;;25.92;22.08;;;17.20;99.90;;;;;;5075364;28;20043;-70
2023/06/23 03:01:54;;;;;;;27.65;22.38;;;17.30;99.90;;;;;;5075301;28;20335;-70
2023/06/23 03:04:21;;;;;;;30.98;24.92;;;17.40;99.90;;;;;;5074928;28;20040;-70
2023/06/23 03:06:47;;;;;;;32.58;24.92;;;17.10;99.90;;;;;;5074420;28;20079;-70
2023/06/23 03:09:12;;;;;;;34.67;24.63;;;17.10;99.90;;;;;;5074415;28;20071;-70
2023/06/23 03:11:38;;;;;;;30.55;24.80;;;17.10;99.90;;;;;;5074987;28;20376;-70
2023/06/23 03:14:04;;;;;;;27.13;23.77;;;17.50;99.90;;;;;;5058213;28;20078;-70
2023/06/23 03:16:46;;;;;;;32.67;24.13;;;17.90;99.90;;;;;;5074239;28;20039;-70
2023/06/23 03:19:36;;;;;;;34.83;27.40;;;17.10;99.90;;;;;;5080122;22;20045;-71
2023/06/23 03:22:07;;;;;;;33.55;25.20;;;17.20;99.90;;;;;;5054924;28;20036;-70
2023/06/23 03:24:37;;;;;;;33.88;24.60;;;17.30;99.90;;;;;;5054520;28;20044;-70
2023/06/23 03:27:07;;;;;;;33.40;25.38;;;17.40;99.90;;;;;;5054372;28;20087;-70
2023/06/23 03:29:38;;;;;;;36.05;25.27;;;18.00;99.90;;;;;;5018092;28;20068;-70
2023/06/23 03:32:07;;;;;;;35.97;26.85;;;17.30;99.90;;;;;;5034604;28;20120;-71
2023/06/23 03:34:55;;;;;;;34.95;26.63;;;17.10;99.90;;;;;;5034372;28;20044;-73
2023/06/23 03:37:23;;;;;;;34.10;25.00;;;17.10;99.90;;;;;;5033909;28;20041;-70
2023/06/23 03:39:56;;;;;;;33.90;26.48;;;16.90;99.90;;;;;;5034233;28;20041;-71
2023/06/23 03:42:22;;;;;;;31.10;24.95;;;;;;;;;;5034639;28;20472;-70
2023/06/23 03:44:49;;;;;;;29.75;23.48;;;16.90;99.90;;;;;;5034541;28;20396;-73
2023/06/23 03:47:25;;;;;;;29.17;24.02;;;17.00;99.90;;;;;;5033864;28;20076;-71
2023/06/23 03:49:56;;;;;;;28.90;22.00;;;16.90;99.90;;;;;;5017852;28;20523;-70
2023/06/23 03:52:23;;;;;;;27.17;21.52;;;17.70;99.90;;;;;;5034185;28;20090;-71
2023/06/23 03:54:52;;;;;;;28.17;22.48;;;17.00;99.90;;;;;;5035099;28;20106;-71
2023/06/23 03:57:23;;;;;;;28.70;22.23;;;17.10;99.90;;;;;;5038371;28;20037;-70
2023/06/23 03:59:52;;;;;;;28.55;22.13;;;17.00;99.90;;;;;;5021482;28;20500;-71
2023/06/23 04:02:20;;;;;;;27.42;20.83;;;17.40;99.90;;;;;;5020309;28;20037;-70
2023/06/23 04:04:48;;;;;;;27.75;20.13;;;17.30;99.90;;;;;;5017956;28;20037;-70
2023/06/23 04:07:14;;;;;;;27.98;20.02;;;17.00;99.90;;;;;;5033484;28;20101;-71
2023/06/23 04:09:43;;;;;;;28.08;20.55;;;17.30;99.90;;;;;;5033874;28;20040;-71
2023/06/23 04:12:12;;;;;;;26.02;19.50;;;17.20;99.90;;;;;;5017589;28;20051;-72
2023/06/23 04:14:41;;;;;;;26.67;18.90;;;17.10;99.90;;;;;;5033779;28;20041;-70
2023/06/23 04:17:09;;;;;;;26.50;18.90;;;17.00;99.90;;;;;;5016894;28;20041;-70
2023/06/23 04:19:36;;;;;;;24.92;19.08;;;17.10;99.90;;;;;;5033825;28;20068;-70
2023/06/23 04:22:05;;;;;;;26.90;19.42;;;17.30;99.90;;;;;;5034017;28;20817;-71
2023/06/23 04:24:33;;;;;;;21.27;16.65;;;17.00;99.90;;;;;;5034087;28;20466;-70
2023/06/23 04:27:01;;;;;;;22.75;16.52;;;17.10;99.90;;;;;;5016866;28;20562;-70
2023/06/23 04:29:27;;;;;;;22.42;16.90;;;17.20;99.90;;;;;;5033501;28;20037;-70
2023/06/23 04:31:54;;;;;;;20.00;16.10;;;17.60;99.90;;;;;;5033722;28;20048;-71
2023/06/23 04:34:21;;;;;;;23.73;16.98;;;17.30;99.90;;;;;;5033421;28;20077;-72
2023/06/23 04:37:03;;;;;;;24.75;17.90;;;17.40;99.90;;;;;;5034306;28;20404;-71
2023/06/23 04:39:41;;;;;;;23.65;17.20;;;17.20;99.90;;;;;;5036861;28;20153;-71
2023/06/23 04:42:09;;;;;;;21.60;17.10;;;17.10;99.90;;;;;;5051718;28;20037;-70
2023/06/23 04:44:42;;;;;;;23.38;16.95;;;17.40;99.90;;;;;;5017177;28;20081;-70
2023/06/23 04:47:10;;;;;;;23.80;16.40;;;17.20;99.90;;;;;;5033166;28;20049;-71
2023/06/23 04:49:39;;;;;;;24.80;17.48;;;17.20;99.90;;;;;;5033291;28;20504;-72
2023/06/23 04:52:07;;;;;;;22.63;15.68;;;17.10;99.90;;;;;;5033394;28;20041;-70
2023/06/23 04:54:40;;;;;;;24.92;15.77;;;17.00;99.90;;;;;;5033456;28;20052;-70
2023/06/23 04:57:13;;;;;;;21.90;17.08;;;17.50;99.90;;;;;;5032873;28;20044;-71
2023/06/23 04:59:41;;;;;;;22.63;16.73;;;17.50;99.90;;;;;;5033438;28;20040;-73
2023/06/23 05:02:10;;;;;;;19.65;15.73;;;17.70;99.90;;;;;;5033485;28;20037;-70
2023/06/23 05:04:39;;;;;;;20.95;16.45;;;17.80;99.90;;;;;;5036088;28;20092;-71
2023/06/23 05:07:06;;;;;;;20.25;15.43;;;18.40;99.90;;;;;;5036557;28;20037;-70
2023/06/23 05:09:34;;;;;;;22.27;16.05;;;17.60;99.90;;;;;;5037046;28;20044;-70
2023/06/23 05:12:01;;;;;;;23.10;16.58;;;18.50;99.90;;;;;;5037115;28;20583;-70
2023/06/23 05:14:29;;;;;;;20.15;15.60;;;17.50;99.90;;;;;;5020697;28;20041;-71
2023/06/23 05:16:59;;;;;;;22.90;16.75;;;17.40;99.90;;;;;;5020105;28;20075;-71
2023/06/23 05:19:28;;;;;;;22.02;16.42;;;18.70;99.90;;;;;;5016160;28;20037;-70
2023/06/23 05:21:57;;;;;;;24.30;17.30;;;17.40;99.90;;;;;;5016762;28;20064;-70
2023/06/23 05:24:25;;;;;;;19.85;15.77;;;17.70;99.90;;;;;;5017124;28;20041;-71
2023/06/23 05:26:54;;;;;;;20.15;16.27;;;17.50;99.90;;;;;;5016574;28;20056;-71
2023/06/23 05:29:22;;;;;;;23.13;15.65;;;17.50;99.90;;;;;;5016241;28;20051;-71
2023/06/23 05:31:49;;;;;;;21.83;16.20;;;17.60;99.90;;;;;;5022592;28;20036;-71
2023/06/23 05:34:17;;;;;;;23.25;16.83;;;18.20;99.90;;;;;;5010206;28;20124;-68
2023/06/23 05:36:44;;;;;;;24.42;16.65;;;18.00;99.90;;;;;;5010484;28;20034;-70
2023/06/23 05:39:15;;;;;;;24.20;17.48;;;18.10;99.90;;;;;;5024447;28;20029;-70
2023/06/23 05:41:41;;;;;;;22.08;16.05;;;17.90;99.90;;;;;;5000538;28;20033;-70
2023/06/23 05:44:06;;;;;;;22.45;15.68;;;18.30;99.90;;;;;;5016818;28;20037;-70
2023/06/23 05:46:34;;;;;;;19.80;14.88;;;18.00;99.90;;;;;;5016281;28;20092;-70
2023/06/23 05:49:08;;;;;;;16.13;12.88;;;18.30;99.90;;;;;;5000034;28;20095;-70
2023/06/23 05:51:35;;;;;;;16.67;12.40;;;18.20;99.90;;;;;;5016754;28;20130;-70
2023/06/23 05:54:08;;;;;;;22.67;14.60;;;18.40;99.90;;;;;;5000057;28;20060;-70
2023/06/23 05:56:42;;;;;;;18.83;13.43;;;18.40;99.90;;;;;;5033927;28;20040;-72
2023/06/23 05:59:15;;;;;;;18.75;13.88;;;18.30;99.90;;;;;;5024322;28;20030;-70
2023/06/23 06:01:45;;;;;;;19.70;13.88;;;18.60;99.90;;;;;;5040794;28;20040;-70
2023/06/23 06:04:14;;;;;;;18.42;12.68;;;19.10;99.90;;;;;;5025201;28;20042;-72
2023/06/23 06:06:41;;;;;;;16.80;12.63;;;19.00;99.90;;;;;;5020848;28;20382;-70
2023/06/23 06:09:10;;;;;;;16.63;13.52;;;19.10;99.90;;;;;;5056105;28;20066;-70
2023/06/23 06:11:38;;;;;;;14.68;11.80;;;19.30;99.90;;;;;;5056117;28;20048;-70
2023/06/23 06:14:07;;;;;;;17.77;10.63;;;19.60;99.90;;;;;;5057646;28;20123;-70
2023/06/23 06:16:35;;;;;;;18.02;9.77;;;19.50;99.90;;;;;;5059989;28;20625;-72
2023/06/23 06:19:01;;;;;;;13.02;8.77;;;20.00;99.90;;;;;;5059602;28;20083;-71
2023/06/23 06:21:30;;;;;;;10.70;8.43;;;19.90;99.90;;;;;;5058014;28;20063;-72
2023/06/23 06:24:05;;;;;;;10.95;7.20;;;19.70;99.90;;;;;;5074196;28;20040;-70
2023/06/23 06:26:31;;;;;;;10.30;6.78;;;20.00;99.90;;;;;;5055521;28;20507;-68
2023/06/23 06:28:58;;;;;;;13.40;8.23;;;22.60;99.90;;;;;;5055768;28;20084;-71
2023/06/23 06:31:26;;;;;;;12.65;8.52;;;20.10;99.90;;;;;;5055769;28;20040;-71
2023/06/23 06:33:54;;;;;;;9.60;7.47;;;20.10;99.90;;;;;;5055638;28;20040;-71
2023/06/23 06:36:23;;;;;;;9.60;6.97;;;20.30;99.90;;;;;;5055957;28;20036;-70
2023/06/23 06:38:51;;;;;;;14.77;9.05;;;20.40;99.90;;;;;;5054777;28;20156;-70
2023/06/23 06:41:17;;;;;;;10.75;6.75;;;20.40;99.90;;;;;;5055360;28;20036;-71
2023/06/23 06:43:44;;;;;;;12.15;8.27;;;20.60;99.90;;;;;;5037536;28;20079;-71
2023/06/23 06:46:11;;;;;;;11.65;8.40;;;20.70;99.90;;;;;;5031372;28;20052;-70
2023/06/23 06:48:39;;;;;;;9.05;8.00;;;20.70;99.90;;;;;;5027049;28;20056;-71
2023/06/23 06:51:05;;;;;;;11.10;7.90;;;20.80;99.90;;;;;;5030748;28;20491;-70
2023/06/23 06:53:31;;;;;;;11.07;9.38;;;20.80;99.90;;;;;;5038587;28;20040;-75
2023/06/23 06:55:58;;;;;;;10.48;8.60;;;20.90;99.90;;;;;;5024555;28;20872;-70
2023/06/23 06:58:23;;;;;;;12.65;8.43;;;20.90;99.90;;;;;;5031592;28;20794;-71
2023/06/23 07:00:49;;;;;;;11.98;8.98;;;21.00;99.90;;;;;;5031155;28;20138;-73
2023/06/23 07:03:16;;;;;;;12.05;9.38;;;21.00;99.90;;;;;;5030732;28;20037;-72
2023/06/23 07:05:42;;;;;;;11.05;8.43;;;21.10;99.90;;;;;;5025137;28;20044;-73
2023/06/23 07:08:10;;;;;;;11.18;7.20;;;21.10;99.90;;;;;;5030628;28;20060;-68
2023/06/23 07:10:36;;;;;;;8.38;7.18;;;21.20;99.90;;;;;;5043435;28;20041;-69
2023/06/23 07:13:03;;;;;;;8.15;6.65;;;21.20;99.90;;;;;;5006773;28;20033;-72
2023/06/23 07:15:29;;;;;;;10.63;5.93;;;21.30;99.90;;;;;;5020781;28;20084;-71
2023/06/23 07:17:55;;;;;;;11.77;6.75;;;21.30;99.90;;;;;;5020429;28;20045;-71
2023/06/23 07:20:21;;;;;;;8.15;5.70;;;21.60;99.90;;;;;;5029404;28;20037;-71
2023/06/23 07:22:46;;;;;;;7.97;6.47;;;21.50;99.90;;;;;;5029756;28;20056;-73
2023/06/23 07:25:12;;;;;;;9.00;6.05;;;21.80;99.90;;;;;;5029876;28;20110;-71
2023/06/23 07:27:37;;;;;;;8.32;5.82;;;21.80;99.90;;;;;;5020586;28;20033;-71
2023/06/23 07:30:04;;;;;;;9.38;6.85;;;22.00;99.90;;;;;;5033059;28;20060;-71
2023/06/23 07:32:30;;;;;;;13.63;8.43;;;21.60;99.90;;;;;;5017931;28;20037;-72
2023/06/23 07:34:56;;;;;;;6.95;6.25;;;22.10;99.90;;;;;;5014137;28;20059;-72
2023/06/23 07:37:22;;;;;;;8.40;6.47;;;21.80;99.90;;;;;;5007218;28;20033;-71
2023/06/23 07:40:00;;;;;;;8.65;7.20;;;22.10;99.90;;;;;;5023175;28;20056;-76
2023/06/23 07:42:29;;;;;;;7.97;6.75;;;21.60;99.90;;;;;;5031061;28;20044;-71
2023/06/23 07:44:54;;;;;;;8.77;6.70;;;21.90;99.90;;;;;;5016487;28;20044;-71
2023/06/23 07:47:20;;;;;;;9.52;6.93;;;22.10;99.90;;;;;;4997863;28;20128;-71
2023/06/23 07:49:46;;;;;;;9.45;7.25;;;21.90;99.90;;;;;;5031770;28;20029;-73
2023/06/23 07:52:11;;;;;;;12.55;7.30;;;22.10;99.90;;;;;;5016921;28;20029;-71
2023/06/23 07:54:37;;;;;;;8.68;7.10;;;22.40;99.90;;;;;;5016958;28;20092;-71
2023/06/23 07:57:05;;;;;;;9.70;7.82;;;22.10;99.90;;;;;;5036750;28;20492;-71
2023/06/23 07:59:31;;;;;;;10.05;7.82;;;22.30;99.90;;;;;;5033766;28;20524;-70
2023/06/23 08:01:57;;;;;;;11.50;8.82;;;22.20;99.90;;;;;;5052057;28;20122;-71
2023/06/23 08:04:22;;;;;;;10.18;8.30;;;22.20;99.90;;;;;;5033982;28;20124;-73
2023/06/23 08:06:48;;;;;;;9.57;6.90;;;22.30;99.90;;;;;;5033555;28;20182;-70
2023/06/23 08:09:15;;;;;;;9.38;5.82;;;22.30;99.90;;;;;;5033990;28;20040;-70
2023/06/23 08:11:41;;;;;;;10.95;6.65;;;22.10;99.90;;;;;;5018008;28;20408;-72
2023/06/23 08:14:07;;;;;;;8.95;6.18;;;22.50;99.90;;;;;;5034105;28;20048;-68
2023/06/23 08:16:32;;;;;;;8.60;5.95;;;22.50;99.90;;;;;;5033800;28;20045;-70
2023/06/23 08:18:59;;;;;;;7.00;6.20;;;22.60;99.90;;;;;;5033723;28;20087;-72
2023/06/23 08:21:25;;;;;;;8.55;5.95;;;22.70;99.90;;;;;;5029787;28;20065;-71
2023/06/23 08:23:50;;;;;;;7.95;5.80;;;22.60;99.90;;;;;;5014722;28;20045;-71
2023/06/23 08:26:18;;;;;;;5.30;4.40;;;22.30;99.90;;;;;;5034119;28;20484;-70
2023/06/23 08:28:43;;;;;;;6.10;4.70;;;22.50;99.90;;;;;;5016771;28;20134;-73
2023/06/23 08:31:10;;;;;;;5.93;4.53;;;22.70;99.90;;;;;;5034218;28;20076;-71
2023/06/23 08:33:35;;;;;;;5.72;4.10;;;22.80;99.90;;;;;;5025520;28;20045;-72
2023/06/23 08:36:02;;;;;;;6.47;4.55;;;22.50;99.90;;;;;;5028635;28;20029;-72
2023/06/23 08:38:27;;;;;;;7.20;4.65;;;22.80;99.90;;;;;;5030420;28;20068;-72
2023/06/23 08:40:54;;;;;;;7.88;6.40;;;22.60;99.90;;;;;;5019846;28;20515;-72
2023/06/23 08:43:26;;;;;;;7.18;5.25;;;23.00;99.90;;;;;;5036016;28;20037;-70
2023/06/23 08:45:58;;;;;;;7.18;5.63;;;22.70;99.90;;;;;;5018156;28;20390;-71
2023/06/23 08:48:26;;;;;;;6.30;5.30;;;22.90;99.90;;;;;;5017649;28;20041;-71
2023/06/23 08:51:02;;;;;;;8.18;4.88;;;22.80;99.90;;;;;;5020985;28;20390;-71
2023/06/23 08:53:28;;;;;;;6.53;4.65;;;22.90;99.90;;;;;;5018020;28;20045;-71
2023/06/23 08:55:55;;;;;;;6.68;4.00;;;22.90;99.90;;;;;;5001682;28;20404;-71
2023/06/23 08:58:25;;;;;;;5.63;3.88;;;23.10;99.90;;;;;;5017169;28;20037;-72
2023/06/23 09:00:52;;;;;;;6.13;4.32;;;23.10;99.90;;;;;;5017969;28;20095;-71
2023/06/23 09:03:24;;;;;;;6.22;3.80;;;23.10;99.90;;;;;;5001487;28;20120;-71
2023/06/23 09:05:50;;;;;;;8.33;4.20;;;23.30;99.90;;;;;;5017932;28;20049;-70
2023/06/23 09:08:16;;;;;;;6.03;4.47;;;23.40;99.90;;;;;;5034867;28;20300;-71
2023/06/23 09:10:41;;;;;;;9.50;5.25;;;23.70;99.90;;;;;;5017406;28;20047;-70
2023/06/23 09:13:07;;;;;;;6.95;4.82;;;23.50;99.90;;;;;;5034723;28;20080;-72
2023/06/23 09:15:37;;;;;;;5.78;3.78;;;23.70;99.90;;;;;;5017457;28;20095;-73
2023/06/23 09:18:03;;;;;;;8.30;4.43;;;23.80;99.90;;;;;;5035252;28;20048;-73
2023/06/23 09:20:33;;;;;;;7.80;3.88;;;23.90;99.90;;;;;;5044425;28;20034;-72
2023/06/23 09:22:58;;;;;;;6.85;4.18;;;23.50;99.90;;;;;;5017725;28;20095;-72
2023/06/23 09:25:38;;;;;;;7.53;4.72;;;23.60;99.90;;;;;;5017555;28;20037;-73
2023/06/23 09:28:04;;;;;;;5.75;3.97;;;24.00;99.90;;;;;;5017052;28;20037;-74
2023/06/23 09:30:36;;;;;;;4.68;3.72;;;23.80;99.90;;;;;;5017344;28;20446;-73
2023/06/23 09:33:05;;;;;;;4.57;3.47;;;23.40;99.90;;;;;;5015962;28;20044;-73
2023/06/23 09:35:31;;;;;;;5.15;3.67;;;23.60;99.90;;;;;;5015928;28;20132;-73
2023/06/23 09:37:57;;;;;;;6.38;3.35;;;23.60;99.90;;;;;;5016385;28;20037;-74
2023/06/23 09:40:26;;;;;;;7.15;4.22;;;24.00;99.90;;;;;;5016542;28;20083;-73
2023/06/23 09:42:59;;;;;;;6.88;3.58;;;24.10;99.90;;;;;;5034779;28;20045;-74
2023/06/23 09:45:25;;;;;;;4.40;3.28;;;24.00;99.90;;;;;;5017100;28;20037;-74
2023/06/23 09:47:54;;;;;;;8.40;4.13;;;24.10;99.90;;;;;;5000283;28;20041;-72
2023/06/23 09:50:22;;;;;;;4.70;3.75;;;24.20;99.90;;;;;;5033882;28;20037;-73
2023/06/23 09:53:00;;;;;;;8.27;4.00;;;24.10;99.90;;;;;;5016929;28;20064;-73
2023/06/23 09:55:28;;;;;;;6.65;4.65;;;24.10;99.90;;;;;;5016704;28;20088;-73
2023/06/23 09:57:54;;;;;;;5.53;3.83;;;23.60;99.90;;;;;;5034125;28;20160;-73
2023/06/23 10:00:31;;;;;;;5.63;4.43;;;24.00;99.90;;;;;;5034338;28;20558;-72
2023/06/23 10:03:02;;;;;;;5.13;4.35;;;24.00;99.90;;;;;;5017147;28;20045;-73
2023/06/23 10:05:35;;;;;;;5.32;4.30;;;24.30;99.90;;;;;;5016847;28;20076;-72
2023/06/23 10:08:10;;;;;;;7.13;3.88;;;24.20;99.90;;;;;;5000580;28;20405;-74
2023/06/23 10:10:46;;;;;;;6.50;3.60;;;24.00;99.90;;;;;;5016631;28;20390;-73
2023/06/23 10:13:12;;;;;;;5.47;3.70;;;24.20;99.90;;;;;;5000542;28;20480;-73
2023/06/23 10:15:40;;;;;;;6.45;4.30;;;24.60;99.90;;;;;;5000072;28;20038;-73
2023/06/23 10:18:06;;;;;;;6.40;4.00;;;24.70;99.90;;;;;;5015899;28;20041;-73
2023/06/23 10:20:32;;;;;;;6.90;4.10;;;24.70;99.90;;;;;;4999983;28;20523;-73
2023/06/23 10:22:58;;;;;;;6.68;4.22;;;24.80;99.90;;;;;;5016849;28;20033;-73
2023/06/23 10:25:26;;;;;;;6.80;4.43;;;24.80;99.90;;;;;;5016095;28;20120;-73
2023/06/23 10:27:54;;;;;;;10.55;4.75;;;24.80;99.90;;;;;;4999658;28;20128;-73
2023/06/23 10:30:21;;;;;;;8.88;4.28;;;24.70;99.90;;;;;;4999653;28;20041;-73
2023/06/23 10:32:52;;;;;;;7.80;5.43;;;24.60;99.90;;;;;;5016155;28;20045;-73
2023/06/23 10:35:21;;;;;;;7.43;4.75;;;24.10;99.90;;;;;;5016025;28;20045;-74
2023/06/23 10:37:49;;;;;;;6.82;4.30;;;24.40;99.90;;;;;;5015655;28;20425;-73
2023/06/23 10:40:19;;;;;;;11.60;3.90;;;24.50;99.90;;;;;;5015487;28;20045;-74
2023/06/23 10:42:48;;;;;;;6.28;4.50;;;24.50;99.90;;;;;;5015994;28;20041;-73
2023/06/23 10:45:14;;;;;;;4.63;3.60;;;24.60;99.90;;;;;;4999571;28;20390;-73
2023/06/23 10:47:40;;;;;;;5.63;4.72;;;24.70;99.90;;;;;;5015605;28;20152;-72
2023/06/23 10:50:08;;;;;;;6.43;4.25;;;24.60;99.90;;;;;;5015506;28;20095;-73
2023/06/23 10:52:34;;;;;;;6.65;4.10;;;24.70;99.90;;;;;;5015706;28;20072;-73
2023/06/23 10:55:00;;;;;;;9.05;4.63;;;24.90;99.90;;;;;;5019413;28;20046;-72
2023/06/23 10:57:26;;;;;;;8.98;3.70;;;25.00;99.90;;;;;;5038332;28;20033;-72
2023/06/23 11:00:05;;;;;;;8.27;3.80;;;24.80;99.90;;;;;;5038264;28;20095;-73
2023/06/23 11:02:52;;;;;;;4.90;3.55;;;24.90;99.90;;;;;;5016280;28;20520;-73
2023/06/23 11:05:17;;;;;;;6.32;4.10;;;24.70;99.90;;;;;;4999064;28;20089;-73
2023/06/23 11:08:03;;;;;;;6.68;3.97;;;24.90;99.90;;;;;;5014995;28;20134;-74
2023/06/23 11:10:48;;;;;;;7.10;4.03;;;24.90;99.90;;;;;;5015383;28;20412;-73
2023/06/23 11:13:14;;;;;;;7.32;4.10;;;24.80;99.90;;;;;;5015141;28;20037;-73
2023/06/23 11:15:47;;;;;;;6.13;4.70;;;25.00;99.90;;;;;;5033033;28;20048;-72
2023/06/23 11:18:14;;;;;;;7.15;4.55;;;25.00;99.90;;;;;;5016622;28;20041;-72
2023/06/23 11:20:43;;;;;;;6.40;3.53;;;25.20;99.90;;;;;;5018914;28;20213;-73
2023/06/23 11:23:11;;;;;;;7.10;3.05;;;25.00;99.90;;;;;;5040279;28;20504;-74
2023/06/23 11:25:48;;;;;;;5.63;3.03;;;25.20;99.90;;;;;;5036785;28;20057;-74
2023/06/23 11:28:30;;;;;;;6.13;4.40;;;25.40;99.90;;;;;;5000405;28;20045;-74
2023/06/23 11:31:18;;;;;;;5.63;3.47;;;25.20;99.90;;;;;;5014388;28;20374;-74
2023/06/23 11:33:58;;;;;;;4.10;2.90;;;25.40;99.90;;;;;;5014939;28;20041;-72
2023/06/23 11:36:26;;;;;;;4.10;3.25;;;25.50;99.90;;;;;;5014909;28;20079;-72
2023/06/23 11:38:55;;;;;;;4.63;3.03;;;25.50;99.50;;;;;;5013846;28;20048;-72
2023/06/23 11:41:29;;;;;;;4.45;2.80;;;25.70;98.40;;;;;;5014754;28;20095;-72
2023/06/23 11:44:02;;;;;;;3.83;2.92;;;25.70;97.30;;;;;;4998631;28;20116;-72
2023/06/23 11:46:31;;;;;;;3.03;2.65;;;26.00;98.10;;;;;;5033841;28;20048;-72
2023/06/23 11:48:57;;;;;;;6.63;3.30;;;25.30;97.50;;;;;;4998107;28;20049;-72
2023/06/23 11:51:22;;;;;;;5.05;2.72;;;25.40;98.20;;;;;;5014523;28;20497;-72
2023/06/23 11:53:52;;;;;;;3.25;2.55;;;25.60;97.80;;;;;;5014333;28;20041;-72
2023/06/23 11:56:19;;;;;;;3.78;2.83;;;25.00;97.20;;;;;;4998199;28;20044;-73
2023/06/23 11:58:50;;;;;;;5.45;2.85;;;25.60;97.70;;;;;;5013928;28;20038;-73
2023/06/23 12:01:17;;;;;;;3.72;3.08;;;25.20;98.30;;;;;;4998629;28;20124;-73
2023/06/23 12:03:50;;;;;;;7.20;4.05;;;25.30;98.40;;;;;;5032544;28;20053;-73
2023/06/23 12:06:17;;;;;;;4.38;3.00;;;25.30;98.90;;;;;;5014476;28;20521;-73
2023/06/23 12:08:51;;;;;;;4.43;2.40;;;25.80;98.80;;;;;;5013401;28;20049;-73
2023/06/23 12:11:17;;;;;;;3.97;2.70;;;25.50;98.10;;;;;;5014494;28;20048;-74
2023/06/23 12:13:48;;;;;;;4.00;2.80;;;25.90;98.70;;;;;;5014022;28;20080;-73
2023/06/23 12:16:14;;;;;;;5.68;3.35;;;25.60;98.10;;;;;;5014565;28;20041;-73
2023/06/23 12:18:48;;;;;;;7.60;3.17;;;25.30;98.60;;;;;;5013512;28;20153;-73
2023/06/23 12:21:15;;;;;;;3.15;2.20;;;25.50;98.50;;;;;;5014287;28;20484;-73
2023/06/23 12:23:43;;;;;;;5.45;2.38;;;25.40;98.20;;;;;;5031833;28;20425;-73
2023/06/23 12:26:09;;;;;;;5.45;3.75;;;25.10;98.50;;;;;;5014140;28;20111;-73
2023/06/23 12:28:35;;;;;;;5.53;3.20;;;25.20;98.60;;;;;;4997214;28;20068;-73
2023/06/23 12:31:00;;;;;;;7.22;3.17;;;25.30;98.90;;;;;;5012884;28;20053;-73
2023/06/23 12:33:27;;;;;;;6.90;2.72;;;25.40;98.90;;;;;;4997781;28;20034;-73
2023/06/23 12:36:04;;;;;;;3.53;2.55;;;26.00;99.30;;;;;;5014089;28;20052;-73
2023/06/23 12:38:35;;;;;;;4.55;2.75;;;25.70;98.60;;;;;;5013611;28;20048;-72
2023/06/23 12:41:16;;;;;;;5.78;3.15;;;25.70;98.20;;;;;;5013863;28;20037;-73
2023/06/23 12:43:42;;;;;;;5.13;2.60;;;25.40;98.40;;;;;;4997526;28;20040;-73